Main page
METAR-TAF:

METAR-TAF

Airports :

Aéroport de Nevers-Fourchambault

Nevers, France

latitude: 47-00N, longitude: 003-06E, elevation: 180 m

Current weather observation

The report was made 6 hours and 20 minutes ago, at 18:00 UTC
Wind 7 kt from the Southwest, varying between South and West/Southwest
Temperature 23°C
Humidity 69%
Pressure 1015 hPa
Visibility 10 km or more
no clouds below 1500 m and no cumulonimbus

METAR: LFQG 131800Z AUTO 22007KT 190V250 CAVOK 23/17 Q1015

Time: 02:20 (00:20 UTC)


TAF: missing

Weather observations and forecasts of more than 4000 airports (METAR and TAF reports).

The available stations are represented by yellow and red dots on the map.

Hover mouse over dot to see the name of the station.

Then click to see weather observations and forecasts.

To change the map : click on the green buttons with a black cross to zoom in, on the green button with a dash to zoom out, or on the green arrows for adjacent maps.


METAR-TAF: